sensor_id;sensor_type;location;lat;lon;timestamp;temperature;humidity
6792;DHT22;3433;48.730;9.108;2024-02-14T00:00:18;5.10;99.90
6792;DHT22;3433;48.730;9.108;2024-02-14T00:03:06;5.20;99.90
6792;DHT22;3433;48.730;9.108;2024-02-14T00:05:53;5.10;99.90
6792;DHT22;3433;48.730;9.108;2024-02-14T00:08:41;5.10;99.90
6792;DHT22;3433;48.730;9.108;2024-02-14T00:11:28;5.10;99.90
6792;DHT22;3433;48.730;9.108;2024-02-14T00:14:16;5.10;99.90
6792;DHT22;3433;48.730;9.108;2024-02-14T00:17:06;5.10;99.90
6792;DHT22;3433;48.730;9.108;2024-02-14T00:19:53;5.10;99.90
6792;DHT22;3433;48.730;9.108;2024-02-14T00:22:41;5.20;99.90
6792;DHT22;3433;48.730;9.108;2024-02-14T00:25:28;5.20;99.90
6792;DHT22;3433;48.730;9.108;2024-02-14T00:28:16;5.20;99.90
6792;DHT22;3433;48.730;9.108;2024-02-14T00:31:05;5.20;99.90
6792;DHT22;3433;48.730;9.108;2024-02-14T00:33:53;5.30;99.90
6792;DHT22;3433;48.730;9.108;2024-02-14T00:36:40;5.30;99.90
6792;DHT22;3433;48.730;9.108;2024-02-14T00:39:28;5.40;99.90
6792;DHT22;3433;48.730;9.108;2024-02-14T00:42:15;5.40;99.90
6792;DHT22;3433;48.730;9.108;2024-02-14T00:45:02;5.50;99.90
6792;DHT22;3433;48.730;9.108;2024-02-14T00:47:51;5.60;99.90
6792;DHT22;3433;48.730;9.108;2024-02-14T00:50:39;5.60;99.90
6792;DHT22;3433;48.730;9.108;2024-02-14T00:53:26;5.70;99.90
6792;DHT22;3433;48.730;9.108;2024-02-14T00:56:14;5.70;99.90
6792;DHT22;3433;48.730;9.108;2024-02-14T00:59:01;5.90;99.90
6792;DHT22;3433;48.730;9.108;2024-02-14T01:01:48;6.00;99.90
6792;DHT22;3433;48.730;9.108;2024-02-14T01:04:36;6.00;99.90
6792;DHT22;3433;48.730;9.108;2024-02-14T01:07:24;6.10;99.90
6792;DHT22;3433;48.730;9.108;2024-02-14T01:10:12;6.10;99.90
6792;DHT22;3433;48.730;9.108;2024-02-14T01:12:59;6.20;99.90
6792;DHT22;3433;48.730;9.108;2024-02-14T01:15:46;6.20;99.90
6792;DHT22;3433;48.730;9.108;2024-02-14T01:18:33;6.30;99.90
6792;DHT22;3433;48.730;9.108;2024-02-14T01:21:21;6.30;99.90
6792;DHT22;3433;48.730;9.108;2024-02-14T01:24:10;6.40;99.90
6792;DHT22;3433;48.730;9.108;2024-02-14T01:26:57;6.40;99.90
6792;DHT22;3433;48.730;9.108;2024-02-14T01:29:44;6.50;99.90
6792;DHT22;3433;48.730;9.108;2024-02-14T01:32:31;6.50;99.90
6792;DHT22;3433;48.730;9.108;2024-02-14T01:35:18;6.50;99.90
6792;DHT22;3433;48.730;9.108;2024-02-14T01:38:05;6.50;99.90
6792;DHT22;3433;48.730;9.108;2024-02-14T01:40:54;6.70;99.90
6792;DHT22;3433;48.730;9.108;2024-02-14T01:43:42;6.70;99.90
6792;DHT22;3433;48.730;9.108;2024-02-14T01:46:30;6.70;99.90
6792;DHT22;3433;48.730;9.108;2024-02-14T01:49:17;6.60;99.90
6792;DHT22;3433;48.730;9.108;2024-02-14T01:52:05;6.60;99.90
6792;DHT22;3433;48.730;9.108;2024-02-14T01:54:53;6.70;99.90
6792;DHT22;3433;48.730;9.108;2024-02-14T01:57:43;6.70;99.90
6792;DHT22;3433;48.730;9.108;2024-02-14T02:00:30;6.80;99.90
6792;DHT22;3433;48.730;9.108;2024-02-14T02:03:19;6.90;99.90
6792;DHT22;3433;48.730;9.108;2024-02-14T02:06:08;7.00;99.90
6792;DHT22;3433;48.730;9.108;2024-02-14T02:08:55;7.00;99.90
6792;DHT22;3433;48.730;9.108;2024-02-14T02:11:46;7.10;99.90
6792;DHT22;3433;48.730;9.108;2024-02-14T02:14:36;7.00;99.90
6792;DHT22;3433;48.730;9.108;2024-02-14T02:17:23;7.00;99.90
6792;DHT22;3433;48.730;9.108;2024-02-14T02:20:11;7.00;99.90
6792;DHT22;3433;48.730;9.108;2024-02-14T02:22:59;7.10;99.90
6792;DHT22;3433;48.730;9.108;2024-02-14T02:25:48;7.20;99.90
6792;DHT22;3433;48.730;9.108;2024-02-14T02:28:36;7.20;99.90
6792;DHT22;3433;48.730;9.108;2024-02-14T02:31:23;7.20;99.90
6792;DHT22;3433;48.730;9.108;2024-02-14T02:34:11;7.30;99.90
6792;DHT22;3433;48.730;9.108;2024-02-14T02:36:58;7.30;99.90
6792;DHT22;3433;48.730;9.108;2024-02-14T02:39:47;7.40;99.90
6792;DHT22;3433;48.730;9.108;2024-02-14T02:42:34;7.40;99.90
6792;DHT22;3433;48.730;9.108;2024-02-14T02:45:21;7.30;99.90
6792;DHT22;3433;48.730;9.108;2024-02-14T02:48:09;7.30;99.90
6792;DHT22;3433;48.730;9.108;2024-02-14T02:50:56;7.30;99.90
6792;DHT22;3433;48.730;9.108;2024-02-14T02:53:44;7.30;99.90
6792;DHT22;3433;48.730;9.108;2024-02-14T02:56:32;7.20;99.90
6792;DHT22;3433;48.730;9.108;2024-02-14T02:59:20;7.10;99.90
6792;DHT22;3433;48.730;9.108;2024-02-14T03:02:07;7.10;99.90
6792;DHT22;3433;48.730;9.108;2024-02-14T03:04:57;7.20;99.90
6792;DHT22;3433;48.730;9.108;2024-02-14T03:07:45;7.00;99.90
6792;DHT22;3433;48.730;9.108;2024-02-14T03:10:33;6.90;99.90
6792;DHT22;3433;48.730;9.108;2024-02-14T03:13:22;7.10;99.90
6792;DHT22;3433;48.730;9.108;2024-02-14T03:16:10;7.20;99.90
6792;DHT22;3433;48.730;9.108;2024-02-14T03:18:57;7.30;99.90
6792;DHT22;3433;48.730;9.108;2024-02-14T03:21:45;7.20;99.90
6792;DHT22;3433;48.730;9.108;2024-02-14T03:24:32;7.20;99.90
6792;DHT22;3433;48.730;9.108;2024-02-14T03:27:21;7.30;99.90
6792;DHT22;3433;48.730;9.108;2024-02-14T03:30:11;7.30;99.90
6792;DHT22;3433;48.730;9.108;2024-02-14T03:33:03;7.30;99.90
6792;DHT22;3433;48.730;9.108;2024-02-14T03:35:50;7.30;99.90
6792;DHT22;3433;48.730;9.108;2024-02-14T03:38:37;7.30;99.90
6792;DHT22;3433;48.730;9.108;2024-02-14T03:41:25;7.30;99.90
6792;DHT22;3433;48.730;9.108;2024-02-14T03:44:13;7.30;99.90
6792;DHT22;3433;48.730;9.108;2024-02-14T03:47:01;7.30;99.90
6792;DHT22;3433;48.730;9.108;2024-02-14T03:49:50;7.10;99.90
6792;DHT22;3433;48.730;9.108;2024-02-14T03:52:37;7.00;99.90
6792;DHT22;3433;48.730;9.108;2024-02-14T03:55:24;7.00;99.90
6792;DHT22;3433;48.730;9.108;2024-02-14T03:58:12;6.90;99.90
6792;DHT22;3433;48.730;9.108;2024-02-14T04:01:01;7.00;99.90
6792;DHT22;3433;48.730;9.108;2024-02-14T04:03:49;7.10;99.90
6792;DHT22;3433;48.730;9.108;2024-02-14T04:06:36;7.10;99.90
6792;DHT22;3433;48.730;9.108;2024-02-14T04:09:24;7.10;99.90
6792;DHT22;3433;48.730;9.108;2024-02-14T04:12:11;7.20;99.90
6792;DHT22;3433;48.730;9.108;2024-02-14T04:14:59;7.20;99.90
6792;DHT22;3433;48.730;9.108;2024-02-14T04:17:47;7.00;99.90
6792;DHT22;3433;48.730;9.108;2024-02-14T04:20:36;7.10;99.90
6792;DHT22;3433;48.730;9.108;2024-02-14T04:23:23;7.00;99.90
6792;DHT22;3433;48.730;9.108;2024-02-14T04:26:19;7.10;99.90
6792;DHT22;3433;48.730;9.108;2024-02-14T04:29:07;7.20;99.90
6792;DHT22;3433;48.730;9.108;2024-02-14T04:31:55;7.20;99.90
6792;DHT22;3433;48.730;9.108;2024-02-14T04:34:42;7.10;99.90
6792;DHT22;3433;48.730;9.108;2024-02-14T04:37:31;7.00;99.90
6792;DHT22;3433;48.730;9.108;2024-02-14T04:40:18;7.00;99.90
6792;DHT22;3433;48.730;9.108;2024-02-14T04:43:06;7.00;99.90
6792;DHT22;3433;48.730;9.108;2024-02-14T04:45:53;7.20;99.90
6792;DHT22;3433;48.730;9.108;2024-02-14T04:48:40;7.20;99.90
6792;DHT22;3433;48.730;9.108;2024-02-14T04:51:28;7.00;99.90
6792;DHT22;3433;48.730;9.108;2024-02-14T04:54:16;6.90;99.90
6792;DHT22;3433;48.730;9.108;2024-02-14T04:57:04;7.00;99.90
6792;DHT22;3433;48.730;9.108;2024-02-14T04:59:51;7.00;99.90
6792;DHT22;3433;48.730;9.108;2024-02-14T05:02:38;7.00;99.90
6792;DHT22;3433;48.730;9.108;2024-02-14T05:05:27;6.90;99.90
6792;DHT22;3433;48.730;9.108;2024-02-14T05:08:14;7.00;99.90
6792;DHT22;3433;48.730;9.108;2024-02-14T05:11:03;7.10;99.90
6792;DHT22;3433;48.730;9.108;2024-02-14T05:13:50;7.20;99.90
6792;DHT22;3433;48.730;9.108;2024-02-14T05:16:38;7.20;99.90
6792;DHT22;3433;48.730;9.108;2024-02-14T05:19:25;7.30;99.90
6792;DHT22;3433;48.730;9.108;2024-02-14T05:22:12;7.30;99.90
6792;DHT22;3433;48.730;9.108;2024-02-14T05:24:59;7.30;99.90
6792;DHT22;3433;48.730;9.108;2024-02-14T05:27:48;7.30;99.90
6792;DHT22;3433;48.730;9.108;2024-02-14T05:30:35;7.40;99.90
6792;DHT22;3433;48.730;9.108;2024-02-14T05:33:24;7.40;99.90
6792;DHT22;3433;48.730;9.108;2024-02-14T05:36:11;7.20;99.90
6792;DHT22;3433;48.730;9.108;2024-02-14T05:38:59;7.10;99.90
6792;DHT22;3433;48.730;9.108;2024-02-14T05:41:46;7.30;99.90
6792;DHT22;3433;48.730;9.108;2024-02-14T05:44:36;7.30;99.90
6792;DHT22;3433;48.730;9.108;2024-02-14T05:47:23;7.40;99.90
6792;DHT22;3433;48.730;9.108;2024-02-14T05:50:11;7.50;99.90
6792;DHT22;3433;48.730;9.108;2024-02-14T05:52:59;7.60;99.90
6792;DHT22;3433;48.730;9.108;2024-02-14T05:55:47;7.40;99.90
6792;DHT22;3433;48.730;9.108;2024-02-14T05:58:34;7.30;99.90
6792;DHT22;3433;48.730;9.108;2024-02-14T06:01:23;7.20;99.90
6792;DHT22;3433;48.730;9.108;2024-02-14T06:04:10;7.00;99.90
6792;DHT22;3433;48.730;9.108;2024-02-14T06:06:57;7.30;99.90
6792;DHT22;3433;48.730;9.108;2024-02-14T06:09:45;7.40;99.90
6792;DHT22;3433;48.730;9.108;2024-02-14T06:12:32;7.50;99.90
6792;DHT22;3433;48.730;9.108;2024-02-14T06:15:19;7.50;99.90
6792;DHT22;3433;48.730;9.108;2024-02-14T06:18:08;7.60;99.90
6792;DHT22;3433;48.730;9.108;2024-02-14T06:20:55;7.60;99.90
6792;DHT22;3433;48.730;9.108;2024-02-14T06:23:42;7.70;99.90
6792;DHT22;3433;48.730;9.108;2024-02-14T06:26:32;7.60;99.90
6792;DHT22;3433;48.730;9.108;2024-02-14T06:29:20;7.60;99.90
6792;DHT22;3433;48.730;9.108;2024-02-14T06:32:07;7.60;99.90
6792;DHT22;3433;48.730;9.108;2024-02-14T06:34:55;7.60;99.90
6792;DHT22;3433;48.730;9.108;2024-02-14T06:37:43;7.50;99.90
6792;DHT22;3433;48.730;9.108;2024-02-14T06:40:30;7.50;99.90
6792;DHT22;3433;48.730;9.108;2024-02-14T06:43:17;7.50;99.90
6792;DHT22;3433;48.730;9.108;2024-02-14T06:46:05;7.40;99.90
6792;DHT22;3433;48.730;9.108;2024-02-14T06:48:52;7.30;99.90
6792;DHT22;3433;48.730;9.108;2024-02-14T06:51:42;7.30;99.90
6792;DHT22;3433;48.730;9.108;2024-02-14T06:54:29;7.30;99.90
6792;DHT22;3433;48.730;9.108;2024-02-14T06:57:16;7.40;99.90
6792;DHT22;3433;48.730;9.108;2024-02-14T07:00:04;7.40;99.90
6792;DHT22;3433;48.730;9.108;2024-02-14T07:02:52;7.30;99.90
6792;DHT22;3433;48.730;9.108;2024-02-14T07:05:40;7.50;99.90
6792;DHT22;3433;48.730;9.108;2024-02-14T07:08:29;7.50;99.90
6792;DHT22;3433;48.730;9.108;2024-02-14T07:11:17;7.80;99.90
6792;DHT22;3433;48.730;9.108;2024-02-14T07:14:04;7.70;99.90
6792;DHT22;3433;48.730;9.108;2024-02-14T07:16:51;7.50;99.90
6792;DHT22;3433;48.730;9.108;2024-02-14T07:19:39;7.40;99.90
6792;DHT22;3433;48.730;9.108;2024-02-14T07:22:28;7.40;99.90
6792;DHT22;3433;48.730;9.108;2024-02-14T07:25:17;7.40;99.90
6792;DHT22;3433;48.730;9.108;2024-02-14T07:28:05;7.50;99.90
6792;DHT22;3433;48.730;9.108;2024-02-14T07:30:55;7.50;99.90
6792;DHT22;3433;48.730;9.108;2024-02-14T07:33:42;7.60;99.90
6792;DHT22;3433;48.730;9.108;2024-02-14T07:36:31;7.60;99.90
6792;DHT22;3433;48.730;9.108;2024-02-14T07:39:18;7.70;99.90
6792;DHT22;3433;48.730;9.108;2024-02-14T07:42:07;7.80;99.90
6792;DHT22;3433;48.730;9.108;2024-02-14T07:44:54;7.90;99.90
6792;DHT22;3433;48.730;9.108;2024-02-14T07:47:42;8.00;99.90
6792;DHT22;3433;48.730;9.108;2024-02-14T07:50:29;7.90;99.90
6792;DHT22;3433;48.730;9.108;2024-02-14T07:53:16;7.90;99.90
6792;DHT22;3433;48.730;9.108;2024-02-14T07:56:04;7.90;99.90
6792;DHT22;3433;48.730;9.108;2024-02-14T07:58:53;8.10;99.90
6792;DHT22;3433;48.730;9.108;2024-02-14T08:01:40;8.20;99.90
6792;DHT22;3433;48.730;9.108;2024-02-14T08:04:28;8.40;99.90
6792;DHT22;3433;48.730;9.108;2024-02-14T08:07:16;8.50;99.90
6792;DHT22;3433;48.730;9.108;2024-02-14T08:10:03;8.60;99.90
6792;DHT22;3433;48.730;9.108;2024-02-14T08:12:51;8.50;99.90
6792;DHT22;3433;48.730;9.108;2024-02-14T08:15:40;8.50;99.90
6792;DHT22;3433;48.730;9.108;2024-02-14T08:18:27;8.50;99.90
6792;DHT22;3433;48.730;9.108;2024-02-14T08:21:14;8.70;99.90
6792;DHT22;3433;48.730;9.108;2024-02-14T08:24:01;8.80;99.90
6792;DHT22;3433;48.730;9.108;2024-02-14T08:26:49;8.90;99.90
6792;DHT22;3433;48.730;9.108;2024-02-14T08:29:36;9.10;99.90
6792;DHT22;3433;48.730;9.108;2024-02-14T08:32:24;9.10;99.90
6792;DHT22;3433;48.730;9.108;2024-02-14T08:35:11;9.20;99.90
6792;DHT22;3433;48.730;9.108;2024-02-14T08:37:59;9.30;99.90
6792;DHT22;3433;48.730;9.108;2024-02-14T08:40:46;9.50;99.90
6792;DHT22;3433;48.730;9.108;2024-02-14T08:43:35;9.50;99.90
6792;DHT22;3433;48.730;9.108;2024-02-14T08:46:22;9.60;99.90
6792;DHT22;3433;48.730;9.108;2024-02-14T08:49:12;9.60;99.90
6792;DHT22;3433;48.730;9.108;2024-02-14T08:51:59;9.80;99.90
6792;DHT22;3433;48.730;9.108;2024-02-14T08:54:47;9.80;99.90
6792;DHT22;3433;48.730;9.108;2024-02-14T08:57:34;9.90;99.90
6792;DHT22;3433;48.730;9.108;2024-02-14T09:00:21;9.80;99.90
6792;DHT22;3433;48.730;9.108;2024-02-14T09:03:09;9.80;99.90
6792;DHT22;3433;48.730;9.108;2024-02-14T09:05:57;9.90;99.90
6792;DHT22;3433;48.730;9.108;2024-02-14T09:08:44;9.90;99.90
6792;DHT22;3433;48.730;9.108;2024-02-14T09:11:32;10.00;99.90
6792;DHT22;3433;48.730;9.108;2024-02-14T09:14:19;9.90;99.90
6792;DHT22;3433;48.730;9.108;2024-02-14T09:17:06;9.80;99.90
6792;DHT22;3433;48.730;9.108;2024-02-14T09:19:53;9.80;99.90
6792;DHT22;3433;48.730;9.108;2024-02-14T09:22:42;9.80;99.90
6792;DHT22;3433;48.730;9.108;2024-02-14T09:25:29;9.80;99.90
6792;DHT22;3433;48.730;9.108;2024-02-14T09:28:16;9.70;99.90
6792;DHT22;3433;48.730;9.108;2024-02-14T09:31:04;10.00;99.90
6792;DHT22;3433;48.730;9.108;2024-02-14T09:33:51;9.90;99.90
6792;DHT22;3433;48.730;9.108;2024-02-14T09:36:42;10.00;99.90
6792;DHT22;3433;48.730;9.108;2024-02-14T09:39:31;10.10;99.90
6792;DHT22;3433;48.730;9.108;2024-02-14T09:42:23;10.10;99.90
6792;DHT22;3433;48.730;9.108;2024-02-14T09:45:15;10.20;99.90
6792;DHT22;3433;48.730;9.108;2024-02-14T09:48:02;10.10;99.90
6792;DHT22;3433;48.730;9.108;2024-02-14T09:50:52;10.30;99.90
6792;DHT22;3433;48.730;9.108;2024-02-14T09:53:41;10.40;99.90
6792;DHT22;3433;48.730;9.108;2024-02-14T09:56:31;10.50;99.90
6792;DHT22;3433;48.730;9.108;2024-02-14T09:59:18;10.70;99.90
6792;DHT22;3433;48.730;9.108;2024-02-14T10:02:06;10.80;99.90
6792;DHT22;3433;48.730;9.108;2024-02-14T10:04:53;11.00;99.90
6792;DHT22;3433;48.730;9.108;2024-02-14T10:07:41;10.90;99.90
6792;DHT22;3433;48.730;9.108;2024-02-14T10:10:28;10.90;99.90
6792;DHT22;3433;48.730;9.108;2024-02-14T10:13:17;11.00;99.90
6792;DHT22;3433;48.730;9.108;2024-02-14T10:16:04;11.10;99.90
6792;DHT22;3433;48.730;9.108;2024-02-14T10:18:53;11.30;99.90
6792;DHT22;3433;48.730;9.108;2024-02-14T10:21:41;11.30;99.90
6792;DHT22;3433;48.730;9.108;2024-02-14T10:24:29;11.20;99.90
6792;DHT22;3433;48.730;9.108;2024-02-14T10:27:17;11.20;99.90
6792;DHT22;3433;48.730;9.108;2024-02-14T10:30:08;11.10;99.90
6792;DHT22;3433;48.730;9.108;2024-02-14T10:32:58;11.30;99.90
6792;DHT22;3433;48.730;9.108;2024-02-14T10:35:45;11.40;99.90
6792;DHT22;3433;48.730;9.108;2024-02-14T10:38:34;11.60;99.90
6792;DHT22;3433;48.730;9.108;2024-02-14T10:41:22;11.70;99.90
6792;DHT22;3433;48.730;9.108;2024-02-14T10:44:09;11.90;99.90
6792;DHT22;3433;48.730;9.108;2024-02-14T10:47:00;11.90;99.90
6792;DHT22;3433;48.730;9.108;2024-02-14T10:49:50;12.00;99.90
6792;DHT22;3433;48.730;9.108;2024-02-14T10:52:40;12.10;99.90
6792;DHT22;3433;48.730;9.108;2024-02-14T10:55:30;12.30;99.90
6792;DHT22;3433;48.730;9.108;2024-02-14T10:58:19;12.30;99.90
6792;DHT22;3433;48.730;9.108;2024-02-14T11:01:08;12.50;99.90
6792;DHT22;3433;48.730;9.108;2024-02-14T11:03:57;12.70;99.90
6792;DHT22;3433;48.730;9.108;2024-02-14T11:06:45;12.50;99.90
6792;DHT22;3433;48.730;9.108;2024-02-14T11:09:33;12.50;99.90
6792;DHT22;3433;48.730;9.108;2024-02-14T11:12:23;12.30;99.90
6792;DHT22;3433;48.730;9.108;2024-02-14T11:15:11;12.50;99.90
6792;DHT22;3433;48.730;9.108;2024-02-14T11:18:04;12.50;99.90
6792;DHT22;3433;48.730;9.108;2024-02-14T11:20:54;12.40;99.90
6792;DHT22;3433;48.730;9.108;2024-02-14T11:23:52;12.30;99.90
6792;DHT22;3433;48.730;9.108;2024-02-14T11:26:40;12.30;99.90
6792;DHT22;3433;48.730;9.108;2024-02-14T11:29:32;12.30;99.90
6792;DHT22;3433;48.730;9.108;2024-02-14T11:32:22;12.30;99.90
6792;DHT22;3433;48.730;9.108;2024-02-14T11:35:11;12.20;99.90
6792;DHT22;3433;48.730;9.108;2024-02-14T11:38:01;12.30;99.90
6792;DHT22;3433;48.730;9.108;2024-02-14T11:40:49;12.20;99.90
6792;DHT22;3433;48.730;9.108;2024-02-14T11:43:36;12.30;99.90
6792;DHT22;3433;48.730;9.108;2024-02-14T11:46:25;12.50;99.90
6792;DHT22;3433;48.730;9.108;2024-02-14T11:49:15;12.40;99.90
6792;DHT22;3433;48.730;9.108;2024-02-14T11:52:03;12.30;99.90
6792;DHT22;3433;48.730;9.108;2024-02-14T11:54:53;12.40;99.90
6792;DHT22;3433;48.730;9.108;2024-02-14T11:57:42;12.50;99.90
6792;DHT22;3433;48.730;9.108;2024-02-14T12:00:29;12.60;99.90
6792;DHT22;3433;48.730;9.108;2024-02-14T12:03:19;12.50;99.90
6792;DHT22;3433;48.730;9.108;2024-02-14T12:06:07;12.60;99.90
6792;DHT22;3433;48.730;9.108;2024-02-14T12:08:54;12.60;99.90
6792;DHT22;3433;48.730;9.108;2024-02-14T12:11:43;12.80;99.90
6792;DHT22;3433;48.730;9.108;2024-02-14T12:14:32;12.70;99.90
6792;DHT22;3433;48.730;9.108;2024-02-14T12:17:20;12.70;99.90
6792;DHT22;3433;48.730;9.108;2024-02-14T12:20:08;12.90;99.90
6792;DHT22;3433;48.730;9.108;2024-02-14T12:22:57;12.90;99.90
6792;DHT22;3433;48.730;9.108;2024-02-14T12:25:44;13.00;99.90
6792;DHT22;3433;48.730;9.108;2024-02-14T12:28:34;13.10;99.90
6792;DHT22;3433;48.730;9.108;2024-02-14T12:31:23;13.20;99.90
6792;DHT22;3433;48.730;9.108;2024-02-14T12:34:11;13.10;99.90
6792;DHT22;3433;48.730;9.108;2024-02-14T12:36:59;13.20;99.90
6792;DHT22;3433;48.730;9.108;2024-02-14T12:39:46;13.40;99.90
6792;DHT22;3433;48.730;9.108;2024-02-14T12:42:33;13.30;99.90
6792;DHT22;3433;48.730;9.108;2024-02-14T12:45:22;13.20;99.90
6792;DHT22;3433;48.730;9.108;2024-02-14T12:48:11;13.20;99.90
6792;DHT22;3433;48.730;9.108;2024-02-14T12:50:59;13.20;99.90
6792;DHT22;3433;48.730;9.108;2024-02-14T12:53:46;13.20;99.90
6792;DHT22;3433;48.730;9.108;2024-02-14T12:56:33;13.30;99.90
6792;DHT22;3433;48.730;9.108;2024-02-14T12:59:21;13.40;99.90
6792;DHT22;3433;48.730;9.108;2024-02-14T13:02:09;13.50;99.90
6792;DHT22;3433;48.730;9.108;2024-02-14T13:04:57;13.50;99.90
6792;DHT22;3433;48.730;9.108;2024-02-14T13:07:44;13.50;99.90
6792;DHT22;3433;48.730;9.108;2024-02-14T13:10:32;13.60;99.90
6792;DHT22;3433;48.730;9.108;2024-02-14T13:13:20;13.60;99.90
6792;DHT22;3433;48.730;9.108;2024-02-14T13:16:07;13.70;99.90
6792;DHT22;3433;48.730;9.108;2024-02-14T13:18:55;13.80;99.90
6792;DHT22;3433;48.730;9.108;2024-02-14T13:21:43;13.50;99.90
6792;DHT22;3433;48.730;9.108;2024-02-14T13:24:31;13.40;99.90
6792;DHT22;3433;48.730;9.108;2024-02-14T13:27:18;13.50;99.90
6792;DHT22;3433;48.730;9.108;2024-02-14T13:30:07;13.70;99.90
6792;DHT22;3433;48.730;9.108;2024-02-14T13:32:55;13.70;99.90
6792;DHT22;3433;48.730;9.108;2024-02-14T13:35:43;13.60;99.90
6792;DHT22;3433;48.730;9.108;2024-02-14T13:38:30;13.80;99.90
6792;DHT22;3433;48.730;9.108;2024-02-14T13:41:18;13.80;99.90
6792;DHT22;3433;48.730;9.108;2024-02-14T13:44:06;13.90;99.90
6792;DHT22;3433;48.730;9.108;2024-02-14T13:46:54;13.80;99.90
6792;DHT22;3433;48.730;9.108;2024-02-14T13:49:41;13.80;99.90
6792;DHT22;3433;48.730;9.108;2024-02-14T13:52:30;13.70;99.90
6792;DHT22;3433;48.730;9.108;2024-02-14T13:55:19;13.70;99.90
6792;DHT22;3433;48.730;9.108;2024-02-14T13:58:06;13.70;99.90
6792;DHT22;3433;48.730;9.108;2024-02-14T14:00:59;13.70;99.90
6792;DHT22;3433;48.730;9.108;2024-02-14T14:03:47;13.80;99.90
6792;DHT22;3433;48.730;9.108;2024-02-14T14:06:36;13.90;99.90
6792;DHT22;3433;48.730;9.108;2024-02-14T14:09:24;13.90;99.90
6792;DHT22;3433;48.730;9.108;2024-02-14T14:12:12;13.80;99.90
6792;DHT22;3433;48.730;9.108;2024-02-14T14:15:00;13.90;99.90
6792;DHT22;3433;48.730;9.108;2024-02-14T14:17:47;13.80;99.90
6792;DHT22;3433;48.730;9.108;2024-02-14T14:20:35;13.70;99.90
6792;DHT22;3433;48.730;9.108;2024-02-14T14:23:22;13.90;99.90
6792;DHT22;3433;48.730;9.108;2024-02-14T14:26:10;14.00;99.90
6792;DHT22;3433;48.730;9.108;2024-02-14T14:28:59;13.90;99.90
6792;DHT22;3433;48.730;9.108;2024-02-14T14:31:46;13.80;99.90
6792;DHT22;3433;48.730;9.108;2024-02-14T14:34:33;13.60;99.90
6792;DHT22;3433;48.730;9.108;2024-02-14T14:37:20;13.40;99.90
6792;DHT22;3433;48.730;9.108;2024-02-14T14:40:08;13.60;99.90
6792;DHT22;3433;48.730;9.108;2024-02-14T14:42:57;13.60;99.90
6792;DHT22;3433;48.730;9.108;2024-02-14T14:45:44;13.60;99.90
6792;DHT22;3433;48.730;9.108;2024-02-14T14:48:32;13.70;99.90
6792;DHT22;3433;48.730;9.108;2024-02-14T14:51:19;13.60;99.90
6792;DHT22;3433;48.730;9.108;2024-02-14T14:54:06;13.60;99.90
6792;DHT22;3433;48.730;9.108;2024-02-14T14:56:54;13.60;99.90
6792;DHT22;3433;48.730;9.108;2024-02-14T14:59:42;13.50;99.90
6792;DHT22;3433;48.730;9.108;2024-02-14T15:02:30;13.50;99.90
6792;DHT22;3433;48.730;9.108;2024-02-14T15:05:17;13.40;99.90
6792;DHT22;3433;48.730;9.108;2024-02-14T15:08:05;13.40;99.90
6792;DHT22;3433;48.730;9.108;2024-02-14T15:10:53;13.50;99.90
6792;DHT22;3433;48.730;9.108;2024-02-14T15:13:41;13.50;99.90
6792;DHT22;3433;48.730;9.108;2024-02-14T15:16:29;13.50;99.90
6792;DHT22;3433;48.730;9.108;2024-02-14T15:19:17;13.40;99.90
6792;DHT22;3433;48.730;9.108;2024-02-14T15:22:04;13.40;99.90
6792;DHT22;3433;48.730;9.108;2024-02-14T15:24:51;13.50;99.90
6792;DHT22;3433;48.730;9.108;2024-02-14T15:27:39;13.60;99.90
6792;DHT22;3433;48.730;9.108;2024-02-14T15:30:30;13.70;99.90
6792;DHT22;3433;48.730;9.108;2024-02-14T15:33:35;13.60;99.90
6792;DHT22;3433;48.730;9.108;2024-02-14T15:36:23;13.60;99.90
6792;DHT22;3433;48.730;9.108;2024-02-14T15:39:10;13.70;99.90
6792;DHT22;3433;48.730;9.108;2024-02-14T15:41:57;13.50;99.90
6792;DHT22;3433;48.730;9.108;2024-02-14T15:44:45;13.60;99.90
6792;DHT22;3433;48.730;9.108;2024-02-14T15:47:32;13.50;99.90
6792;DHT22;3433;48.730;9.108;2024-02-14T15:50:20;13.50;99.90
6792;DHT22;3433;48.730;9.108;2024-02-14T15:53:08;13.60;99.90
6792;DHT22;3433;48.730;9.108;2024-02-14T15:55:56;13.50;99.90
6792;DHT22;3433;48.730;9.108;2024-02-14T15:58:44;13.60;99.90
6792;DHT22;3433;48.730;9.108;2024-02-14T16:01:31;13.50;99.90
6792;DHT22;3433;48.730;9.108;2024-02-14T16:04:18;13.60;99.90
6792;DHT22;3433;48.730;9.108;2024-02-14T16:07:07;13.60;99.90
6792;DHT22;3433;48.730;9.108;2024-02-14T16:09:55;13.60;99.90
6792;DHT22;3433;48.730;9.108;2024-02-14T16:12:43;13.60;99.90
6792;DHT22;3433;48.730;9.108;2024-02-14T16:15:30;13.60;99.90
6792;DHT22;3433;48.730;9.108;2024-02-14T16:18:17;13.60;99.90
6792;DHT22;3433;48.730;9.108;2024-02-14T16:21:05;13.60;99.90
6792;DHT22;3433;48.730;9.108;2024-02-14T16:23:53;13.50;99.90
6792;DHT22;3433;48.730;9.108;2024-02-14T16:26:41;13.60;99.90
6792;DHT22;3433;48.730;9.108;2024-02-14T16:29:28;13.50;99.90
6792;DHT22;3433;48.730;9.108;2024-02-14T16:32:17;13.60;99.90
6792;DHT22;3433;48.730;9.108;2024-02-14T16:35:04;13.50;99.90
6792;DHT22;3433;48.730;9.108;2024-02-14T16:37:51;13.50;99.90
6792;DHT22;3433;48.730;9.108;2024-02-14T16:40:41;13.60;99.90
6792;DHT22;3433;48.730;9.108;2024-02-14T16:43:28;13.50;99.90
6792;DHT22;3433;48.730;9.108;2024-02-14T16:46:15;13.50;99.90
6792;DHT22;3433;48.730;9.108;2024-02-14T16:49:02;13.50;99.90
6792;DHT22;3433;48.730;9.108;2024-02-14T16:51:50;13.40;99.90
6792;DHT22;3433;48.730;9.108;2024-02-14T16:54:37;13.30;99.90
6792;DHT22;3433;48.730;9.108;2024-02-14T16:57:26;13.30;99.90
6792;DHT22;3433;48.730;9.108;2024-02-14T17:00:14;13.20;99.90
6792;DHT22;3433;48.730;9.108;2024-02-14T17:03:01;13.30;99.90
6792;DHT22;3433;48.730;9.108;2024-02-14T17:05:48;13.40;99.90
6792;DHT22;3433;48.730;9.108;2024-02-14T17:08:35;13.30;99.90
6792;DHT22;3433;48.730;9.108;2024-02-14T17:11:23;13.30;99.90
6792;DHT22;3433;48.730;9.108;2024-02-14T17:14:12;13.20;99.90
6792;DHT22;3433;48.730;9.108;2024-02-14T17:17:00;13.30;99.90
6792;DHT22;3433;48.730;9.108;2024-02-14T17:19:47;13.40;99.90
6792;DHT22;3433;48.730;9.108;2024-02-14T17:22:34;13.40;99.90
6792;DHT22;3433;48.730;9.108;2024-02-14T17:25:22;13.50;99.90
6792;DHT22;3433;48.730;9.108;2024-02-14T17:28:09;13.50;99.90
6792;DHT22;3433;48.730;9.108;2024-02-14T17:30:57;13.40;99.90
6792;DHT22;3433;48.730;9.108;2024-02-14T17:33:45;13.50;99.90
6792;DHT22;3433;48.730;9.108;2024-02-14T17:36:34;13.30;99.90
6792;DHT22;3433;48.730;9.108;2024-02-14T17:39:21;13.30;99.90
6792;DHT22;3433;48.730;9.108;2024-02-14T17:42:09;13.40;99.90
6792;DHT22;3433;48.730;9.108;2024-02-14T17:44:56;13.30;99.90
6792;DHT22;3433;48.730;9.108;2024-02-14T17:47:45;13.30;99.90
6792;DHT22;3433;48.730;9.108;2024-02-14T17:50:32;13.20;99.90
6792;DHT22;3433;48.730;9.108;2024-02-14T17:53:20;13.20;99.90
6792;DHT22;3433;48.730;9.108;2024-02-14T17:56:08;13.10;99.90
6792;DHT22;3433;48.730;9.108;2024-02-14T17:58:55;13.10;99.90
6792;DHT22;3433;48.730;9.108;2024-02-14T18:01:42;13.10;99.90
6792;DHT22;3433;48.730;9.108;2024-02-14T18:04:31;13.00;99.90
6792;DHT22;3433;48.730;9.108;2024-02-14T18:07:19;13.00;99.90
6792;DHT22;3433;48.730;9.108;2024-02-14T18:10:06;12.90;99.90
6792;DHT22;3433;48.730;9.108;2024-02-14T18:12:53;13.00;99.90
6792;DHT22;3433;48.730;9.108;2024-02-14T18:15:41;13.10;99.90
6792;DHT22;3433;48.730;9.108;2024-02-14T18:18:28;13.00;99.90
6792;DHT22;3433;48.730;9.108;2024-02-14T18:21:17;13.00;99.90
6792;DHT22;3433;48.730;9.108;2024-02-14T18:24:05;13.20;99.90